sensor_id;sensor_type;location;lat;lon;timestamp;P1;durP1;ratioP1;P2;durP2;ratioP2
13421;SDS011;6782;55.904;13.396;2022-11-20T00:00:50;2.70;;;2.50;;
13421;SDS011;6782;55.904;13.396;2022-11-20T00:03:37;2.70;;;2.50;;
13421;SDS011;6782;55.904;13.396;2022-11-20T00:06:25;3.37;;;3.07;;
13421;SDS011;6782;55.904;13.396;2022-11-20T00:09:13;3.10;;;2.90;;
13421;SDS011;6782;55.904;13.396;2022-11-20T00:12:00;2.80;;;2.53;;
13421;SDS011;6782;55.904;13.396;2022-11-20T00:14:48;2.83;;;2.63;;
13421;SDS011;6782;55.904;13.396;2022-11-20T00:17:35;3.00;;;2.67;;
13421;SDS011;6782;55.904;13.396;2022-11-20T00:20:22;2.97;;;2.70;;
13421;SDS011;6782;55.904;13.396;2022-11-20T00:23:10;2.80;;;2.30;;
13421;SDS011;6782;55.904;13.396;2022-11-20T00:26:00;2.53;;;2.33;;
13421;SDS011;6782;55.904;13.396;2022-11-20T00:28:49;2.70;;;2.50;;
13421;SDS011;6782;55.904;13.396;2022-11-20T00:31:38;2.50;;;2.30;;
13421;SDS011;6782;55.904;13.396;2022-11-20T00:34:26;2.50;;;2.30;;
13421;SDS011;6782;55.904;13.396;2022-11-20T00:37:13;2.90;;;2.70;;
13421;SDS011;6782;55.904;13.396;2022-11-20T00:40:00;2.80;;;2.60;;
13421;SDS011;6782;55.904;13.396;2022-11-20T00:42:47;2.97;;;2.77;;
13421;SDS011;6782;55.904;13.396;2022-11-20T00:45:34;2.90;;;2.60;;
13421;SDS011;6782;55.904;13.396;2022-11-20T00:48:23;2.70;;;2.50;;
13421;SDS011;6782;55.904;13.396;2022-11-20T00:51:11;3.40;;;3.10;;
13421;SDS011;6782;55.904;13.396;2022-11-20T00:54:00;3.03;;;2.73;;
13421;SDS011;6782;55.904;13.396;2022-11-20T00:56:47;2.80;;;2.60;;
13421;SDS011;6782;55.904;13.396;2022-11-20T00:59:34;3.27;;;2.60;;
13421;SDS011;6782;55.904;13.396;2022-11-20T01:02:21;2.80;;;2.40;;
13421;SDS011;6782;55.904;13.396;2022-11-20T01:05:10;3.17;;;2.87;;
13421;SDS011;6782;55.904;13.396;2022-11-20T01:07:57;3.57;;;2.80;;
13421;SDS011;6782;55.904;13.396;2022-11-20T01:10:44;3.00;;;2.80;;
13421;SDS011;6782;55.904;13.396;2022-11-20T01:13:31;2.93;;;2.67;;
13421;SDS011;6782;55.904;13.396;2022-11-20T01:16:25;3.00;;;2.80;;
13421;SDS011;6782;55.904;13.396;2022-11-20T01:19:14;3.13;;;2.90;;
13421;SDS011;6782;55.904;13.396;2022-11-20T01:22:04;3.07;;;2.77;;
13421;SDS011;6782;55.904;13.396;2022-11-20T01:24:51;2.90;;;2.70;;
13421;SDS011;6782;55.904;13.396;2022-11-20T01:27:38;3.50;;;3.20;;
13421;SDS011;6782;55.904;13.396;2022-11-20T01:30:25;2.87;;;2.67;;
13421;SDS011;6782;55.904;13.396;2022-11-20T01:33:12;3.33;;;3.13;;
13421;SDS011;6782;55.904;13.396;2022-11-20T01:36:03;3.27;;;2.97;;
13421;SDS011;6782;55.904;13.396;2022-11-20T01:38:53;3.67;;;3.37;;
13421;SDS011;6782;55.904;13.396;2022-11-20T01:41:41;3.47;;;3.17;;
13421;SDS011;6782;55.904;13.396;2022-11-20T01:44:51;3.00;;;2.70;;
13421;SDS011;6782;55.904;13.396;2022-11-20T01:47:42;3.00;;;2.80;;
13421;SDS011;6782;55.904;13.396;2022-11-20T01:50:32;3.03;;;2.73;;
13421;SDS011;6782;55.904;13.396;2022-11-20T01:53:20;3.43;;;2.97;;
13421;SDS011;6782;55.904;13.396;2022-11-20T01:56:13;2.90;;;2.70;;
13421;SDS011;6782;55.904;13.396;2022-11-20T01:59:01;3.40;;;3.10;;
13421;SDS011;6782;55.904;13.396;2022-11-20T02:01:52;3.07;;;2.77;;
13421;SDS011;6782;55.904;13.396;2022-11-20T02:04:39;3.00;;;2.77;;
13421;SDS011;6782;55.904;13.396;2022-11-20T02:07:27;3.27;;;2.97;;
13421;SDS011;6782;55.904;13.396;2022-11-20T02:10:15;3.77;;;3.47;;
13421;SDS011;6782;55.904;13.396;2022-11-20T02:13:04;3.23;;;2.93;;
13421;SDS011;6782;55.904;13.396;2022-11-20T02:16:10;3.33;;;3.03;;
13421;SDS011;6782;55.904;13.396;2022-11-20T02:19:02;3.40;;;3.10;;
13421;SDS011;6782;55.904;13.396;2022-11-20T02:21:56;3.20;;;2.90;;
13421;SDS011;6782;55.904;13.396;2022-11-20T02:24:49;3.20;;;3.00;;
13421;SDS011;6782;55.904;13.396;2022-11-20T02:27:37;3.20;;;3.00;;
13421;SDS011;6782;55.904;13.396;2022-11-20T02:30:25;3.30;;;3.00;;
13421;SDS011;6782;55.904;13.396;2022-11-20T02:33:12;3.23;;;2.90;;
13421;SDS011;6782;55.904;13.396;2022-11-20T02:35:59;3.80;;;3.50;;
13421;SDS011;6782;55.904;13.396;2022-11-20T02:38:47;3.83;;;3.43;;
13421;SDS011;6782;55.904;13.396;2022-11-20T02:41:37;3.80;;;3.50;;
13421;SDS011;6782;55.904;13.396;2022-11-20T02:44:24;3.60;;;3.30;;
13421;SDS011;6782;55.904;13.396;2022-11-20T02:47:11;3.60;;;3.30;;
13421;SDS011;6782;55.904;13.396;2022-11-20T02:49:59;3.87;;;3.53;;
13421;SDS011;6782;55.904;13.396;2022-11-20T02:52:46;3.33;;;3.03;;
13421;SDS011;6782;55.904;13.396;2022-11-20T02:55:33;3.70;;;3.40;;
13421;SDS011;6782;55.904;13.396;2022-11-20T02:58:22;3.27;;;3.07;;
13421;SDS011;6782;55.904;13.396;2022-11-20T03:01:09;3.50;;;3.20;;
13421;SDS011;6782;55.904;13.396;2022-11-20T03:03:56;3.60;;;3.30;;
13421;SDS011;6782;55.904;13.396;2022-11-20T03:06:43;3.80;;;3.50;;
13421;SDS011;6782;55.904;13.396;2022-11-20T03:09:30;3.77;;;3.47;;
13421;SDS011;6782;55.904;13.396;2022-11-20T03:12:17;4.83;;;3.80;;
13421;SDS011;6782;55.904;13.396;2022-11-20T03:15:06;3.80;;;3.50;;
13421;SDS011;6782;55.904;13.396;2022-11-20T03:17:54;3.20;;;2.90;;
13421;SDS011;6782;55.904;13.396;2022-11-20T03:20:41;3.50;;;3.20;;
13421;SDS011;6782;55.904;13.396;2022-11-20T03:23:29;3.80;;;3.47;;
13421;SDS011;6782;55.904;13.396;2022-11-20T03:26:18;3.60;;;3.30;;
13421;SDS011;6782;55.904;13.396;2022-11-20T03:29:06;3.10;;;2.80;;
13421;SDS011;6782;55.904;13.396;2022-11-20T03:31:55;3.57;;;3.27;;
13421;SDS011;6782;55.904;13.396;2022-11-20T03:34:42;3.40;;;3.10;;
13421;SDS011;6782;55.904;13.396;2022-11-20T03:37:29;3.67;;;3.37;;
13421;SDS011;6782;55.904;13.396;2022-11-20T03:40:16;3.60;;;3.30;;
13421;SDS011;6782;55.904;13.396;2022-11-20T03:43:04;3.87;;;3.30;;
13421;SDS011;6782;55.904;13.396;2022-11-20T03:45:51;3.63;;;3.33;;
13421;SDS011;6782;55.904;13.396;2022-11-20T03:48:39;3.80;;;3.40;;
13421;SDS011;6782;55.904;13.396;2022-11-20T03:51:28;3.60;;;3.30;;
13421;SDS011;6782;55.904;13.396;2022-11-20T03:54:16;3.47;;;3.17;;
13421;SDS011;6782;55.904;13.396;2022-11-20T03:57:03;3.70;;;3.20;;
13421;SDS011;6782;55.904;13.396;2022-11-20T03:59:50;3.60;;;3.30;;
13421;SDS011;6782;55.904;13.396;2022-11-20T04:02:37;3.50;;;3.20;;
13421;SDS011;6782;55.904;13.396;2022-11-20T04:05:26;4.17;;;3.77;;
13421;SDS011;6782;55.904;13.396;2022-11-20T04:08:13;3.70;;;3.40;;
13421;SDS011;6782;55.904;13.396;2022-11-20T04:11:10;4.00;;;3.70;;
13421;SDS011;6782;55.904;13.396;2022-11-20T04:13:59;3.70;;;3.40;;
13421;SDS011;6782;55.904;13.396;2022-11-20T04:16:49;3.57;;;3.27;;
13421;SDS011;6782;55.904;13.396;2022-11-20T04:19:36;4.10;;;3.80;;
13421;SDS011;6782;55.904;13.396;2022-11-20T04:22:24;3.77;;;3.43;;
13421;SDS011;6782;55.904;13.396;2022-11-20T04:25:11;4.10;;;3.80;;
13421;SDS011;6782;55.904;13.396;2022-11-20T04:27:58;3.77;;;3.37;;
13421;SDS011;6782;55.904;13.396;2022-11-20T04:30:45;3.90;;;3.60;;
13421;SDS011;6782;55.904;13.396;2022-11-20T04:33:33;5.13;;;3.60;;
13421;SDS011;6782;55.904;13.396;2022-11-20T04:36:22;4.47;;;3.67;;
13421;SDS011;6782;55.904;13.396;2022-11-20T04:39:14;4.23;;;3.53;;
13421;SDS011;6782;55.904;13.396;2022-11-20T04:42:02;3.60;;;3.30;;
13421;SDS011;6782;55.904;13.396;2022-11-20T04:45:07;4.07;;;3.77;;
13421;SDS011;6782;55.904;13.396;2022-11-20T04:47:54;4.47;;;3.90;;
13421;SDS011;6782;55.904;13.396;2022-11-20T04:50:41;3.83;;;3.43;;
13421;SDS011;6782;55.904;13.396;2022-11-20T04:53:28;4.63;;;4.03;;
13421;SDS011;6782;55.904;13.396;2022-11-20T04:56:17;4.70;;;4.03;;
13421;SDS011;6782;55.904;13.396;2022-11-20T04:59:04;4.03;;;3.73;;
13421;SDS011;6782;55.904;13.396;2022-11-20T05:01:51;4.33;;;3.93;;
13421;SDS011;6782;55.904;13.396;2022-11-20T05:04:38;4.20;;;3.80;;
13421;SDS011;6782;55.904;13.396;2022-11-20T05:07:25;4.50;;;3.90;;
13421;SDS011;6782;55.904;13.396;2022-11-20T05:10:12;4.50;;;4.10;;
13421;SDS011;6782;55.904;13.396;2022-11-20T05:13:01;4.47;;;4.10;;
13421;SDS011;6782;55.904;13.396;2022-11-20T05:15:48;4.60;;;4.20;;
13421;SDS011;6782;55.904;13.396;2022-11-20T05:18:36;4.80;;;4.40;;
13421;SDS011;6782;55.904;13.396;2022-11-20T05:21:24;4.90;;;4.47;;
13421;SDS011;6782;55.904;13.396;2022-11-20T05:24:11;4.20;;;3.90;;
13421;SDS011;6782;55.904;13.396;2022-11-20T05:26:58;4.07;;;3.77;;
13421;SDS011;6782;55.904;13.396;2022-11-20T05:29:47;4.47;;;3.97;;
13421;SDS011;6782;55.904;13.396;2022-11-20T05:32:34;4.83;;;4.30;;
13421;SDS011;6782;55.904;13.396;2022-11-20T05:35:21;4.73;;;4.23;;
13421;SDS011;6782;55.904;13.396;2022-11-20T05:38:08;4.43;;;3.83;;
13421;SDS011;6782;55.904;13.396;2022-11-20T05:41:02;4.97;;;4.50;;
13421;SDS011;6782;55.904;13.396;2022-11-20T05:43:50;4.40;;;4.00;;
13421;SDS011;6782;55.904;13.396;2022-11-20T05:46:39;4.97;;;4.00;;
13421;SDS011;6782;55.904;13.396;2022-11-20T05:49:26;4.87;;;4.40;;
13421;SDS011;6782;55.904;13.396;2022-11-20T05:52:13;4.40;;;4.00;;
13421;SDS011;6782;55.904;13.396;2022-11-20T05:55:00;4.70;;;4.30;;
13421;SDS011;6782;55.904;13.396;2022-11-20T05:57:48;4.43;;;4.03;;
13421;SDS011;6782;55.904;13.396;2022-11-20T06:00:35;4.40;;;4.00;;
13421;SDS011;6782;55.904;13.396;2022-11-20T06:03:24;5.03;;;4.63;;
13421;SDS011;6782;55.904;13.396;2022-11-20T06:06:12;5.10;;;4.70;;
13421;SDS011;6782;55.904;13.396;2022-11-20T06:09:00;5.07;;;4.57;;
13421;SDS011;6782;55.904;13.396;2022-11-20T06:11:47;5.20;;;4.70;;
13421;SDS011;6782;55.904;13.396;2022-11-20T06:14:34;4.13;;;3.73;;
13421;SDS011;6782;55.904;13.396;2022-11-20T06:17:21;4.60;;;4.10;;
13421;SDS011;6782;55.904;13.396;2022-11-20T06:20:11;4.47;;;4.07;;
13421;SDS011;6782;55.904;13.396;2022-11-20T06:22:58;4.53;;;4.10;;
13421;SDS011;6782;55.904;13.396;2022-11-20T06:25:45;4.70;;;4.30;;
13421;SDS011;6782;55.904;13.396;2022-11-20T06:28:32;5.33;;;4.23;;
13421;SDS011;6782;55.904;13.396;2022-11-20T06:31:20;4.87;;;4.37;;
13421;SDS011;6782;55.904;13.396;2022-11-20T06:34:09;4.53;;;4.13;;
13421;SDS011;6782;55.904;13.396;2022-11-20T06:36:58;4.93;;;4.53;;
13421;SDS011;6782;55.904;13.396;2022-11-20T06:39:45;4.93;;;4.40;;
13421;SDS011;6782;55.904;13.396;2022-11-20T06:42:33;5.37;;;4.87;;
13421;SDS011;6782;55.904;13.396;2022-11-20T06:45:20;5.23;;;4.83;;
13421;SDS011;6782;55.904;13.396;2022-11-20T06:48:07;5.23;;;4.73;;
13421;SDS011;6782;55.904;13.396;2022-11-20T06:50:55;5.53;;;5.03;;
13421;SDS011;6782;55.904;13.396;2022-11-20T06:53:44;5.43;;;4.90;;
13421;SDS011;6782;55.904;13.396;2022-11-20T06:56:31;6.17;;;4.87;;
13421;SDS011;6782;55.904;13.396;2022-11-20T06:59:18;5.60;;;5.10;;
13421;SDS011;6782;55.904;13.396;2022-11-20T07:02:05;5.20;;;4.70;;
13421;SDS011;6782;55.904;13.396;2022-11-20T07:04:52;5.00;;;4.60;;
13421;SDS011;6782;55.904;13.396;2022-11-20T07:07:39;5.30;;;4.80;;
13421;SDS011;6782;55.904;13.396;2022-11-20T07:10:28;4.90;;;4.50;;
13421;SDS011;6782;55.904;13.396;2022-11-20T07:13:15;5.53;;;5.03;;
13421;SDS011;6782;55.904;13.396;2022-11-20T07:16:03;4.83;;;4.40;;
13421;SDS011;6782;55.904;13.396;2022-11-20T07:18:52;5.20;;;4.70;;
13421;SDS011;6782;55.904;13.396;2022-11-20T07:21:39;5.33;;;4.87;;
13421;SDS011;6782;55.904;13.396;2022-11-20T07:24:27;5.23;;;4.70;;
13421;SDS011;6782;55.904;13.396;2022-11-20T07:27:15;4.70;;;4.30;;
13421;SDS011;6782;55.904;13.396;2022-11-20T07:30:03;5.70;;;5.00;;
13421;SDS011;6782;55.904;13.396;2022-11-20T07:32:51;5.27;;;4.80;;
13421;SDS011;6782;55.904;13.396;2022-11-20T07:35:39;5.30;;;4.80;;
13421;SDS011;6782;55.904;13.396;2022-11-20T07:38:26;5.60;;;5.10;;
13421;SDS011;6782;55.904;13.396;2022-11-20T07:41:13;4.67;;;4.27;;
13421;SDS011;6782;55.904;13.396;2022-11-20T07:44:03;5.67;;;4.80;;
13421;SDS011;6782;55.904;13.396;2022-11-20T07:46:50;5.20;;;4.70;;
13421;SDS011;6782;55.904;13.396;2022-11-20T07:49:37;7.57;;;5.70;;
13421;SDS011;6782;55.904;13.396;2022-11-20T07:52:24;6.10;;;5.50;;
13421;SDS011;6782;55.904;13.396;2022-11-20T07:55:11;6.03;;;5.43;;
13421;SDS011;6782;55.904;13.396;2022-11-20T07:57:59;5.60;;;5.10;;
13421;SDS011;6782;55.904;13.396;2022-11-20T08:00:47;5.80;;;5.20;;
13421;SDS011;6782;55.904;13.396;2022-11-20T08:03:35;6.53;;;5.93;;
13421;SDS011;6782;55.904;13.396;2022-11-20T08:06:24;5.67;;;5.17;;
13421;SDS011;6782;55.904;13.396;2022-11-20T08:09:11;5.33;;;4.83;;
13421;SDS011;6782;55.904;13.396;2022-11-20T08:11:58;5.23;;;4.73;;
13421;SDS011;6782;55.904;13.396;2022-11-20T08:15:03;5.37;;;4.87;;
13421;SDS011;6782;55.904;13.396;2022-11-20T08:17:58;5.60;;;5.10;;
13421;SDS011;6782;55.904;13.396;2022-11-20T08:20:46;5.50;;;5.00;;
13421;SDS011;6782;55.904;13.396;2022-11-20T08:23:33;5.03;;;4.63;;
13421;SDS011;6782;55.904;13.396;2022-11-20T08:26:20;5.23;;;4.73;;
13421;SDS011;6782;55.904;13.396;2022-11-20T08:29:08;5.93;;;5.20;;
13421;SDS011;6782;55.904;13.396;2022-11-20T08:31:56;5.13;;;4.63;;
13421;SDS011;6782;55.904;13.396;2022-11-20T08:34:44;5.03;;;4.63;;
13421;SDS011;6782;55.904;13.396;2022-11-20T08:37:32;5.70;;;5.07;;
13421;SDS011;6782;55.904;13.396;2022-11-20T08:40:19;5.07;;;4.50;;
13421;SDS011;6782;55.904;13.396;2022-11-20T08:43:07;5.10;;;4.60;;
13421;SDS011;6782;55.904;13.396;2022-11-20T08:45:33;4.90;;;4.40;;
13421;SDS011;6782;55.904;13.396;2022-11-20T08:48:19;5.13;;;4.73;;
13421;SDS011;6782;55.904;13.396;2022-11-20T08:51:08;4.97;;;4.57;;
13421;SDS011;6782;55.904;13.396;2022-11-20T08:53:55;4.87;;;4.37;;
13421;SDS011;6782;55.904;13.396;2022-11-20T08:56:42;4.53;;;4.13;;
13421;SDS011;6782;55.904;13.396;2022-11-20T08:59:29;4.97;;;4.57;;
13421;SDS011;6782;55.904;13.396;2022-11-20T09:02:17;5.13;;;4.73;;
13421;SDS011;6782;55.904;13.396;2022-11-20T09:05:05;5.03;;;4.63;;
13421;SDS011;6782;55.904;13.396;2022-11-20T09:07:57;4.83;;;4.43;;
13421;SDS011;6782;55.904;13.396;2022-11-20T09:10:44;4.90;;;4.30;;
13421;SDS011;6782;55.904;13.396;2022-11-20T09:13:33;4.80;;;4.13;;
13421;SDS011;6782;55.904;13.396;2022-11-20T09:16:21;4.93;;;4.43;;
13421;SDS011;6782;55.904;13.396;2022-11-20T09:19:08;4.70;;;4.30;;
13421;SDS011;6782;55.904;13.396;2022-11-20T09:21:55;4.33;;;3.93;;
13421;SDS011;6782;55.904;13.396;2022-11-20T09:24:44;5.23;;;4.73;;
13421;SDS011;6782;55.904;13.396;2022-11-20T09:27:31;4.77;;;4.37;;
13421;SDS011;6782;55.904;13.396;2022-11-20T09:30:18;5.03;;;4.60;;
13421;SDS011;6782;55.904;13.396;2022-11-20T09:33:06;5.47;;;4.97;;
13421;SDS011;6782;55.904;13.396;2022-11-20T09:35:53;11.83;;;8.57;;
13421;SDS011;6782;55.904;13.396;2022-11-20T09:38:40;5.70;;;4.90;;
13421;SDS011;6782;55.904;13.396;2022-11-20T09:41:35;5.97;;;5.43;;
13421;SDS011;6782;55.904;13.396;2022-11-20T09:44:38;4.87;;;4.20;;
13421;SDS011;6782;55.904;13.396;2022-11-20T09:47:38;4.30;;;4.00;;
13421;SDS011;6782;55.904;13.396;2022-11-20T09:50:38;5.03;;;4.53;;
13421;SDS011;6782;55.904;13.396;2022-11-20T09:53:35;4.87;;;4.47;;
13421;SDS011;6782;55.904;13.396;2022-11-20T09:56:34;4.20;;;3.87;;
13421;SDS011;6782;55.904;13.396;2022-11-20T09:59:31;4.30;;;4.00;;
13421;SDS011;6782;55.904;13.396;2022-11-20T10:02:25;4.47;;;4.07;;
13421;SDS011;6782;55.904;13.396;2022-11-20T10:05:17;4.53;;;4.13;;
13421;SDS011;6782;55.904;13.396;2022-11-20T10:08:10;4.50;;;4.10;;
13421;SDS011;6782;55.904;13.396;2022-11-20T10:11:04;4.67;;;4.17;;
13421;SDS011;6782;55.904;13.396;2022-11-20T10:13:58;4.90;;;4.50;;
13421;SDS011;6782;55.904;13.396;2022-11-20T10:16:58;5.67;;;4.27;;
13421;SDS011;6782;55.904;13.396;2022-11-20T10:19:54;4.67;;;3.90;;
13421;SDS011;6782;55.904;13.396;2022-11-20T10:22:53;4.13;;;3.80;;
13421;SDS011;6782;55.904;13.396;2022-11-20T10:25:58;4.23;;;3.93;;
13421;SDS011;6782;55.904;13.396;2022-11-20T10:28:52;3.97;;;3.67;;
13421;SDS011;6782;55.904;13.396;2022-11-20T10:31:48;4.03;;;3.67;;
13421;SDS011;6782;55.904;13.396;2022-11-20T10:34:43;3.67;;;3.37;;
13421;SDS011;6782;55.904;13.396;2022-11-20T10:37:35;3.70;;;3.40;;
13421;SDS011;6782;55.904;13.396;2022-11-20T10:40:31;3.90;;;3.60;;
13421;SDS011;6782;55.904;13.396;2022-11-20T10:43:23;3.80;;;3.50;;
13421;SDS011;6782;55.904;13.396;2022-11-20T10:46:20;3.50;;;3.10;;
13421;SDS011;6782;55.904;13.396;2022-11-20T10:49:12;3.67;;;3.37;;
13421;SDS011;6782;55.904;13.396;2022-11-20T10:52:04;3.50;;;3.20;;
13421;SDS011;6782;55.904;13.396;2022-11-20T10:54:58;3.60;;;3.30;;
13421;SDS011;6782;55.904;13.396;2022-11-20T10:57:58;12.97;;;8.37;;
13421;SDS011;6782;55.904;13.396;2022-11-20T11:00:52;31.67;;;16.37;;
13421;SDS011;6782;55.904;13.396;2022-11-20T11:03:52;56.97;;;25.37;;
13421;SDS011;6782;55.904;13.396;2022-11-20T11:06:40;38.90;;;17.37;;
13421;SDS011;6782;55.904;13.396;2022-11-20T11:09:35;34.80;;;16.20;;
13421;SDS011;6782;55.904;13.396;2022-11-20T11:12:27;25.20;;;16.10;;
13421;SDS011;6782;55.904;13.396;2022-11-20T11:15:24;30.27;;;21.33;;
13421;SDS011;6782;55.904;13.396;2022-11-20T11:18:22;13.10;;;9.73;;
13421;SDS011;6782;55.904;13.396;2022-11-20T11:21:12;18.90;;;13.53;;
13421;SDS011;6782;55.904;13.396;2022-11-20T11:24:00;5.00;;;4.50;;
13421;SDS011;6782;55.904;13.396;2022-11-20T11:26:55;9.20;;;7.00;;
13421;SDS011;6782;55.904;13.396;2022-11-20T11:29:44;3.50;;;3.20;;
13421;SDS011;6782;55.904;13.396;2022-11-20T11:32:31;3.70;;;3.40;;
13421;SDS011;6782;55.904;13.396;2022-11-20T11:35:20;8.53;;;7.63;;
13421;SDS011;6782;55.904;13.396;2022-11-20T11:38:13;8.97;;;7.57;;
13421;SDS011;6782;55.904;13.396;2022-11-20T11:41:03;9.20;;;8.30;;
13421;SDS011;6782;55.904;13.396;2022-11-20T11:43:52;3.83;;;3.53;;
13421;SDS011;6782;55.904;13.396;2022-11-20T11:46:58;6.67;;;5.80;;
13421;SDS011;6782;55.904;13.396;2022-11-20T11:49:46;3.17;;;2.93;;
13421;SDS011;6782;55.904;13.396;2022-11-20T11:52:33;4.13;;;3.73;;
13421;SDS011;6782;55.904;13.396;2022-11-20T11:55:33;5.33;;;4.83;;
13421;SDS011;6782;55.904;13.396;2022-11-20T11:58:32;6.50;;;5.60;;
13421;SDS011;6782;55.904;13.396;2022-11-20T12:01:28;8.93;;;8.03;;
13421;SDS011;6782;55.904;13.396;2022-11-20T12:04:21;4.30;;;3.43;;
13421;SDS011;6782;55.904;13.396;2022-11-20T12:07:27;10.27;;;9.27;;
13421;SDS011;6782;55.904;13.396;2022-11-20T12:10:36;3.10;;;2.90;;
13421;SDS011;6782;55.904;13.396;2022-11-20T12:13:38;2.80;;;2.60;;
13421;SDS011;6782;55.904;13.396;2022-11-20T12:16:31;4.23;;;3.33;;
13421;SDS011;6782;55.904;13.396;2022-11-20T12:19:22;2.93;;;2.60;;
13421;SDS011;6782;55.904;13.396;2022-11-20T12:22:12;3.23;;;2.93;;
13421;SDS011;6782;55.904;13.396;2022-11-20T12:25:10;3.40;;;3.10;;
13421;SDS011;6782;55.904;13.396;2022-11-20T12:28:08;3.33;;;3.13;;
13421;SDS011;6782;55.904;13.396;2022-11-20T12:31:14;3.30;;;2.80;;
13421;SDS011;6782;55.904;13.396;2022-11-20T12:34:20;2.93;;;2.73;;
13421;SDS011;6782;55.904;13.396;2022-11-20T12:37:22;3.07;;;2.87;;
13421;SDS011;6782;55.904;13.396;2022-11-20T12:40:27;3.60;;;3.00;;
13421;SDS011;6782;55.904;13.396;2022-11-20T12:43:21;3.17;;;2.67;;
13421;SDS011;6782;55.904;13.396;2022-11-20T12:46:28;3.60;;;3.23;;
13421;SDS011;6782;55.904;13.396;2022-11-20T12:49:25;4.67;;;3.50;;
13421;SDS011;6782;55.904;13.396;2022-11-20T12:52:25;16.10;;;12.80;;
13421;SDS011;6782;55.904;13.396;2022-11-20T12:55:28;4.77;;;4.27;;
13421;SDS011;6782;55.904;13.396;2022-11-20T12:58:25;9.73;;;8.73;;
13421;SDS011;6782;55.904;13.396;2022-11-20T13:01:23;4.07;;;3.77;;
13421;SDS011;6782;55.904;13.396;2022-11-20T13:04:36;6.63;;;5.67;;
13421;SDS011;6782;55.904;13.396;2022-11-20T13:07:39;13.30;;;11.90;;
13421;SDS011;6782;55.904;13.396;2022-11-20T13:10:31;5.83;;;4.77;;
13421;SDS011;6782;55.904;13.396;2022-11-20T13:13:23;4.87;;;4.23;;
13421;SDS011;6782;55.904;13.396;2022-11-20T13:16:16;5.03;;;4.50;;
13421;SDS011;6782;55.904;13.396;2022-11-20T13:19:11;6.07;;;5.47;;
13421;SDS011;6782;55.904;13.396;2022-11-20T13:22:01;3.87;;;3.57;;
13421;SDS011;6782;55.904;13.396;2022-11-20T13:24:50;5.23;;;4.73;;
13421;SDS011;6782;55.904;13.396;2022-11-20T13:27:46;4.47;;;4.07;;
13421;SDS011;6782;55.904;13.396;2022-11-20T13:30:16;8.50;;;7.70;;
13421;SDS011;6782;55.904;13.396;2022-11-20T13:32:47;16.53;;;13.43;;
13421;SDS011;6782;55.904;13.396;2022-11-20T13:35:23;22.83;;;16.43;;
13421;SDS011;6782;55.904;13.396;2022-11-20T13:37:59;6.00;;;5.40;;
13421;SDS011;6782;55.904;13.396;2022-11-20T13:40:27;3.03;;;2.83;;
13421;SDS011;6782;55.904;13.396;2022-11-20T13:43:19;2.60;;;2.40;;
13421;SDS011;6782;55.904;13.396;2022-11-20T13:46:09;2.80;;;2.50;;
13421;SDS011;6782;55.904;13.396;2022-11-20T13:48:56;3.07;;;2.87;;
13421;SDS011;6782;55.904;13.396;2022-11-20T13:51:44;4.07;;;2.73;;
13421;SDS011;6782;55.904;13.396;2022-11-20T13:58:02;2.70;;;2.50;;
13421;SDS011;6782;55.904;13.396;2022-11-20T14:00:58;2.60;;;2.40;;
13421;SDS011;6782;55.904;13.396;2022-11-20T14:03:56;3.00;;;2.70;;
13421;SDS011;6782;55.904;13.396;2022-11-20T14:06:44;2.60;;;2.40;;
13421;SDS011;6782;55.904;13.396;2022-11-20T14:09:33;9.23;;;7.17;;
13421;SDS011;6782;55.904;13.396;2022-11-20T14:12:21;63.17;;;34.67;;
13421;SDS011;6782;55.904;13.396;2022-11-20T14:15:22;49.83;;;28.00;;
13421;SDS011;6782;55.904;13.396;2022-11-20T14:18:12;3.20;;;2.63;;
13421;SDS011;6782;55.904;13.396;2022-11-20T14:21:02;2.73;;;2.50;;
13421;SDS011;6782;55.904;13.396;2022-11-20T14:23:52;3.10;;;2.70;;
13421;SDS011;6782;55.904;13.396;2022-11-20T14:26:41;3.50;;;2.53;;
13421;SDS011;6782;55.904;13.396;2022-11-20T14:29:29;3.60;;;3.23;;
13421;SDS011;6782;55.904;13.396;2022-11-20T14:32:22;3.93;;;2.83;;
13421;SDS011;6782;55.904;13.396;2022-11-20T14:35:19;5.10;;;3.47;;
13421;SDS011;6782;55.904;13.396;2022-11-20T14:38:12;3.87;;;3.47;;
13421;SDS011;6782;55.904;13.396;2022-11-20T14:41:07;2.80;;;2.60;;
13421;SDS011;6782;55.904;13.396;2022-11-20T14:43:55;2.60;;;2.33;;
13421;SDS011;6782;55.904;13.396;2022-11-20T14:46:44;3.07;;;2.60;;
13421;SDS011;6782;55.904;13.396;2022-11-20T14:49:31;2.90;;;2.70;;
13421;SDS011;6782;55.904;13.396;2022-11-20T14:52:19;2.57;;;2.37;;
13421;SDS011;6782;55.904;13.396;2022-11-20T14:55:13;2.60;;;2.40;;
13421;SDS011;6782;55.904;13.396;2022-11-20T14:58:01;3.57;;;2.77;;
13421;SDS011;6782;55.904;13.396;2022-11-20T15:00:53;2.93;;;2.73;;
13421;SDS011;6782;55.904;13.396;2022-11-20T15:03:41;4.23;;;2.73;;
13421;SDS011;6782;55.904;13.396;2022-11-20T15:06:29;2.70;;;2.50;;
13421;SDS011;6782;55.904;13.396;2022-11-20T15:09:16;2.73;;;2.43;;
13421;SDS011;6782;55.904;13.396;2022-11-20T15:12:06;2.90;;;2.60;;
13421;SDS011;6782;55.904;13.396;2022-11-20T15:14:53;3.97;;;3.10;;
13421;SDS011;6782;55.904;13.396;2022-11-20T15:17:40;4.07;;;3.30;;
13421;SDS011;6782;55.904;13.396;2022-11-20T15:20:28;3.10;;;2.90;;
13421;SDS011;6782;55.904;13.396;2022-11-20T15:23:18;3.53;;;3.23;;
13421;SDS011;6782;55.904;13.396;2022-11-20T15:26:05;4.17;;;3.10;;
13421;SDS011;6782;55.904;13.396;2022-11-20T15:28:54;3.40;;;3.10;;
13421;SDS011;6782;55.904;13.396;2022-11-20T15:31:42;4.83;;;4.30;;
13421;SDS011;6782;55.904;13.396;2022-11-20T15:34:30;3.93;;;3.20;;
13421;SDS011;6782;55.904;13.396;2022-11-20T15:37:17;3.37;;;3.03;;
13421;SDS011;6782;55.904;13.396;2022-11-20T15:40:04;3.90;;;3.50;;
13421;SDS011;6782;55.904;13.396;2022-11-20T15:42:53;3.77;;;3.00;;
13421;SDS011;6782;55.904;13.396;2022-11-20T15:45:50;4.17;;;3.23;;
13421;SDS011;6782;55.904;13.396;2022-11-20T15:48:39;5.03;;;2.97;;
13421;SDS011;6782;55.904;13.396;2022-11-20T15:51:30;3.60;;;3.30;;
13421;SDS011;6782;55.904;13.396;2022-11-20T15:54:20;3.73;;;3.30;;
13421;SDS011;6782;55.904;13.396;2022-11-20T15:57:08;4.13;;;3.17;;
13421;SDS011;6782;55.904;13.396;2022-11-20T15:59:55;3.70;;;3.30;;
13421;SDS011;6782;55.904;13.396;2022-11-20T16:02:44;4.70;;;3.23;;
13421;SDS011;6782;55.904;13.396;2022-11-20T16:05:32;3.77;;;3.10;;
13421;SDS011;6782;55.904;13.396;2022-11-20T16:08:19;3.50;;;3.20;;
13421;SDS011;6782;55.904;13.396;2022-11-20T16:11:06;3.57;;;2.67;;
13421;SDS011;6782;55.904;13.396;2022-11-20T16:13:54;3.70;;;3.07;;
13421;SDS011;6782;55.904;13.396;2022-11-20T16:16:59;2.70;;;2.50;;
13421;SDS011;6782;55.904;13.396;2022-11-20T16:19:48;3.70;;;3.33;;
13421;SDS011;6782;55.904;13.396;2022-11-20T16:22:35;4.83;;;3.13;;
13421;SDS011;6782;55.904;13.396;2022-11-20T16:25:22;2.93;;;2.70;;
13421;SDS011;6782;55.904;13.396;2022-11-20T16:28:09;3.50;;;3.20;;
13421;SDS011;6782;55.904;13.396;2022-11-20T16:30:44;3.93;;;3.53;;
13421;SDS011;6782;55.904;13.396;2022-11-20T16:33:12;3.67;;;3.30;;
13421;SDS011;6782;55.904;13.396;2022-11-20T16:35:44;3.10;;;2.80;;
13421;SDS011;6782;55.904;13.396;2022-11-20T16:38:11;4.27;;;3.10;;
13421;SDS011;6782;55.904;13.396;2022-11-20T16:40:37;3.97;;;3.40;;
13421;SDS011;6782;55.904;13.396;2022-11-20T16:43:06;3.53;;;3.23;;
13421;SDS011;6782;55.904;13.396;2022-11-20T16:45:42;5.33;;;3.10;;
13421;SDS011;6782;55.904;13.396;2022-11-20T16:48:14;3.67;;;3.37;;
13421;SDS011;6782;55.904;13.396;2022-11-20T16:50:47;4.10;;;3.20;;
13421;SDS011;6782;55.904;13.396;2022-11-20T16:53:16;4.10;;;3.47;;
13421;SDS011;6782;55.904;13.396;2022-11-20T16:55:45;4.60;;;3.37;;
13421;SDS011;6782;55.904;13.396;2022-11-20T16:58:12;3.70;;;3.03;;
13421;SDS011;6782;55.904;13.396;2022-11-20T17:00:39;3.60;;;3.30;;